AirNav   Everest Fuels
 
 1121 users online  

M90 William Robert Johnston Municipal Airport
Mendota, California, USA

GOING TO MENDOTA?


FAA INFORMATION EFFECTIVE 02 JANUARY 2020

Location

FAA Identifier: M90
Lat/Long: 36-45-31.0000N 120-22-17.0000W
36-45.516667N 120-22.283333W
36.7586111,-120.3713889
(estimated)
Elevation: 162 ft. / 49 m (estimated)
Variation: 15E (1985)
Time zone: UTC -8 (UTC -7 during Daylight Saving Time)
Zip code: 93640

Airport Operations

Airport use: Open to the public
Activation date: 08/1957
Control tower: no
ARTCC: OAKLAND CENTER
FSS: RANCHO MURIETA FLIGHT SERVICE STATION
NOTAMs facility: RIU (NOTAM-D service available)
Attendance: UNATNDD
Wind indicator: yes
Segmented circle: yes

Airport Communications

CTAF: 122.9
WX ASOS at MAE (18 nm NE): 134.725 (559-674-1781)

Nearby radio navigation aids

VOR radial/distance  VOR name  Freq  Var
PXNr066/19.8PANOCHE VORTAC112.6016E
HYPr162/27.7EL NIDO VOR/DME114.2015E
CZQr239/27.8CLOVIS VORTAC112.9015E
ROMr005/(39.7)PRIEST VOR110.0016E

Airport Services

Parking: tiedowns

Runway Information

Runway 15/33

Dimensions: 3499 x 50 ft. / 1066 x 15 m
Surface: asphalt, in fair condition
Weight bearing capacity: 
Single wheel: 12.5
RUNWAY 15  RUNWAY 33
Latitude: 36-45.798333N36-45.251500N
Longitude: 120-22.404667W120-22.177167W
Traffic pattern: leftright
Displaced threshold: no777 ft.
Markings: basic, in fair conditionbasic, in fair condition
Runway end identifier lights: nono
Obstructions: none17 ft. bldg, 423 ft. from runway, 190 ft. left of centerline, 13:1 slope to clear
APCH RATIO TO DSPLCD THR 50:1.

Airport Ownership and Management from official FAA records

Ownership: Publicly-owned
Owner: CITY OF MENDOTA
643 QUINCE ST
MENDOTA, CA 93640-2334
Phone 559-655-4298
Manager: CRISTIAN GONZALES
643 QUINCE ST
MENDOTA, CA 93640-2334
Phone (559) 655-4298
CITY MANAGER X 109.

Airport Operational Statistics

Aircraft operations: avg 77/week *
50% transient general aviation
50% local general aviation
* for 12-month period ending 12 April 2019

Additional Remarks

ARPT CLSD NIGHTS.
FOR CD CTC NORCAL APCH AT 916-361-0516.
PARL TWY ROUGH/UNEVEN SFC; EXTSV ASPH RPR AND PATCHING.

Instrument Procedures

There are no published instrument procedures at M90.

Some nearby airports with instrument procedures:

F34 - Firebaugh Airport (8 nm NW)
KMAE - Madera Municipal Airport (18 nm NE)
KFCH - Fresno Chandler Executive Airport (27 nm E)
KLSN - Los Banos Municipal Airport (30 nm NW)
KFAT - Fresno Yosemite International Airport (31 nm E)
 
Loc | Ops | Rwys | IFR | FBO | Links
Com | Nav | Svcs | Stats | Notes
Area around M90 (William Robert Johnston Municipal Airport)
 
Road maps at: MapQuest Bing Google
 
Aerial photo
WARNING: Photo may not be current or correct
Aerial photo of M90 (William Robert Johnston Municipal Airport)
Do you have a better or more recent aerial photo of William Robert Johnston Municipal Airport that you would like to share? If so, please send us your photo.

 
Sectional chart

 
Airport distance calculator
Flying to William Robert Johnston Municipal Airport? Find the distance to fly.

From to M90

Sunrise and sunset
Times for 25-Jan-2020
 Local
(UTC-8)
 Zulu
(UTC)
Morning civil twilight06:4214:42
Sunrise07:1015:10
Sunset17:1801:18
Evening civil twilight17:4601:46

Current date and time
Zulu (UTC)  26-Jan-2020 03:59:22
Local (UTC-8)  25-Jan-2020 19:59:22
 
METAR
KMAE 
18nm NE 
260353Z AUTO 09003KT 6SM HZ CLR 12/08 A3013 RMK AO2 SLP202 T01170083
KFCH 
27nm E 
260335Z AUTO 00000KT 7SM CLR 13/11 A3013 RMK A01
KFAT 
32nm E 
260353Z 07004KT 6SM HZ FEW150 FEW200 12/08 A3013 RMK AO2 SLP201 T01220083
KMCE 
32nm N 
260353Z AUTO 07004KT 6SM HZ CLR 13/09 A3011 RMK AO2 SLP197 T01330094
KNLC 
33nm SE 
260256Z AUTO 14005KT 7SM CLR 12/08 A3012 RMK AO2 SLP200 T01170083 53004
TAF
KFAT 
32nm E 
260003Z 2600/2624 VRB04KT 6SM HZ BKN200 FM260800 12005KT 4SM BR OVC100 TEMPO 2612/2616 2SM -DZ BR OVC030 FM261600 12005KT 4SM BR OVC030 FM262000 30007KT 4SM HZ BKN050
KMCE 
32nm N 
251843Z 2519/2618 00000KT 2SM BR SCT005 OVC025 FM252000 VRB03KT 4SM HZ BKN030 FM252200 VRB03KT 6SM HZ SCT030 BKN200 FM260600 12005KT 5SM BR BKN090 OVC150 TEMPO 2608/2612 3SM -RA BR BKN010 FM261200 12005KT 5SM BR SCT030 OVC050
KMER 
39nm N 
260207Z 2602/2624 VRB03KT 6SM HZ SCT019 BKN250 TEMPO 2602/2606 3SM HZ BKN019 OVC250 FM260600 12005KT 5SM BR SCT030 OVC100 TEMPO 2608/2612 3SM -RA BR OVC010 FM261200 12005KT 5SM BR OVC030 FM262000 31006KT 4SM HZ SCT050 AMD NOT SKED
NOTAMs
Click for the latest NOTAMs
NOTAMs are issued by the DoD/FAA and will open in a separate window not controlled by AirNav.

 

 
 

Would you like to see your business listed on this page?

 If your business provides an interesting product or service to pilots, flight crews, aircraft, or users of the William Robert Johnston Municipal Airport, you should consider listing it here.  To start the listing process, click on the button below
 
Add a business
 

Other Pages about William Robert Johnston Municipal Airport

Update a link
 
Copyright © AirNav, LLC. All rights reserved. Privacy Policy  Contact